Beauraing, Belgium
Current Conditions -  °F | °C
As of 4:55 AM on Wednesday 28 Jan 2015 (Local Time) from EBFS Reporting Station
Broken Clouds Broken Clouds  
Wind Chill: -1°   Ceiling: 3000
Heat Index:   Visibility: 4mi
Dew Point:   Wind: 12mph
Humidity: 93%   Direction: 210°SSW
Pressure: 30.06"   Gusts: NA
Location:  50.11°N, 4.96°E
Report Text: EBFS 280355Z 21010KT 6000 SCT003 BKN030 03/02 Q1018 YLO
Loading
Personal Weather Stations






























Interactive Weather Map New forecast layout! Learn more

10-Day Weather Forecast

Advertisements
Track Severe Weather on mobile